sensor_id;sensor_type;location;lat;lon;timestamp;temperature;humidity
69546;SHT31;56766;52.260;20.746;2023-08-24T00:02:00;16.88;75.99
69546;SHT31;56766;52.260;20.746;2023-08-24T00:04:28;16.81;75.69
69546;SHT31;56766;52.260;20.746;2023-08-24T00:06:55;16.74;75.60
69546;SHT31;56766;52.260;20.746;2023-08-24T00:09:22;16.72;75.67
69546;SHT31;56766;52.260;20.746;2023-08-24T00:11:48;16.69;75.66
69546;SHT31;56766;52.260;20.746;2023-08-24T00:14:15;16.65;75.53
69546;SHT31;56766;52.260;20.746;2023-08-24T00:16:42;16.61;75.81
69546;SHT31;56766;52.260;20.746;2023-08-24T00:19:09;16.59;75.86
69546;SHT31;56766;52.260;20.746;2023-08-24T00:21:36;16.58;76.11
69546;SHT31;56766;52.260;20.746;2023-08-24T00:24:03;16.56;76.29
69546;SHT31;56766;52.260;20.746;2023-08-24T00:26:30;16.52;76.44
69546;SHT31;56766;52.260;20.746;2023-08-24T00:28:57;16.50;76.64
69546;SHT31;56766;52.260;20.746;2023-08-24T00:31:23;16.48;76.86
69546;SHT31;56766;52.260;20.746;2023-08-24T00:33:51;16.49;76.82
69546;SHT31;56766;52.260;20.746;2023-08-24T00:36:17;16.48;76.72
69546;SHT31;56766;52.260;20.746;2023-08-24T00:38:44;16.49;76.77
69546;SHT31;56766;52.260;20.746;2023-08-24T00:41:12;16.48;76.79
69546;SHT31;56766;52.260;20.746;2023-08-24T00:43:39;16.46;76.82
69546;SHT31;56766;52.260;20.746;2023-08-24T00:46:07;16.44;76.75
69546;SHT31;56766;52.260;20.746;2023-08-24T00:48:34;16.42;76.77
69546;SHT31;56766;52.260;20.746;2023-08-24T00:51:02;16.41;76.82
69546;SHT31;56766;52.260;20.746;2023-08-24T00:53:31;16.39;76.86
69546;SHT31;56766;52.260;20.746;2023-08-24T00:55:59;16.39;76.96
69546;SHT31;56766;52.260;20.746;2023-08-24T00:58:27;16.36;77.13
69546;SHT31;56766;52.260;20.746;2023-08-24T01:00:55;16.32;77.65
69546;SHT31;56766;52.260;20.746;2023-08-24T01:03:24;16.29;77.91
69546;SHT31;56766;52.260;20.746;2023-08-24T01:05:51;16.26;78.04
69546;SHT31;56766;52.260;20.746;2023-08-24T01:08:20;16.24;78.03
69546;SHT31;56766;52.260;20.746;2023-08-24T01:13:59;16.28;77.73
69546;SHT31;56766;52.260;20.746;2023-08-24T01:16:33;16.30;77.55
69546;SHT31;56766;52.260;20.746;2023-08-24T01:19:07;16.30;77.55
69546;SHT31;56766;52.260;20.746;2023-08-24T01:21:43;16.30;77.39
69546;SHT31;56766;52.260;20.746;2023-08-24T01:24:17;16.28;77.53
69546;SHT31;56766;52.260;20.746;2023-08-24T01:26:51;16.26;77.50
69546;SHT31;56766;52.260;20.746;2023-08-24T01:29:21;16.25;77.40
69546;SHT31;56766;52.260;20.746;2023-08-24T01:31:48;16.24;77.14
69546;SHT31;56766;52.260;20.746;2023-08-24T01:34:16;16.26;77.07
69546;SHT31;56766;52.260;20.746;2023-08-24T01:36:43;16.26;76.88
69546;SHT31;56766;52.260;20.746;2023-08-24T01:39:22;16.26;76.79
69546;SHT31;56766;52.260;20.746;2023-08-24T01:42:05;16.25;76.88
69546;SHT31;56766;52.260;20.746;2023-08-24T01:44:39;16.26;77.14
69546;SHT31;56766;52.260;20.746;2023-08-24T01:47:10;16.24;77.03
69546;SHT31;56766;52.260;20.746;2023-08-24T01:49:40;16.22;77.05
69546;SHT31;56766;52.260;20.746;2023-08-24T01:52:09;16.21;77.18
69546;SHT31;56766;52.260;20.746;2023-08-24T01:54:37;16.20;77.32
69546;SHT31;56766;52.260;20.746;2023-08-24T01:57:06;16.18;77.47
69546;SHT31;56766;52.260;20.746;2023-08-24T01:59:33;16.14;77.48
69546;SHT31;56766;52.260;20.746;2023-08-24T02:02:00;16.12;77.61
69546;SHT31;56766;52.260;20.746;2023-08-24T02:04:26;16.07;77.58
69546;SHT31;56766;52.260;20.746;2023-08-24T02:06:53;16.05;77.78
69546;SHT31;56766;52.260;20.746;2023-08-24T02:09:20;16.05;77.76
69546;SHT31;56766;52.260;20.746;2023-08-24T02:11:46;16.02;77.80
69546;SHT31;56766;52.260;20.746;2023-08-24T02:14:13;16.00;77.78
69546;SHT31;56766;52.260;20.746;2023-08-24T02:16:39;15.98;78.07
69546;SHT31;56766;52.260;20.746;2023-08-24T02:19:06;15.96;78.05
69546;SHT31;56766;52.260;20.746;2023-08-24T02:21:35;15.96;78.16
69546;SHT31;56766;52.260;20.746;2023-08-24T02:24:04;15.96;78.32
69546;SHT31;56766;52.260;20.746;2023-08-24T02:26:31;15.96;78.59
69546;SHT31;56766;52.260;20.746;2023-08-24T02:28:57;15.96;78.61
69546;SHT31;56766;52.260;20.746;2023-08-24T02:31:24;15.97;78.74
69546;SHT31;56766;52.260;20.746;2023-08-24T02:33:51;15.97;79.08
69546;SHT31;56766;52.260;20.746;2023-08-24T02:36:18;15.96;79.23
69546;SHT31;56766;52.260;20.746;2023-08-24T02:38:44;15.96;79.34
69546;SHT31;56766;52.260;20.746;2023-08-24T02:41:11;15.99;79.20
69546;SHT31;56766;52.260;20.746;2023-08-24T02:43:38;16.04;78.71
69546;SHT31;56766;52.260;20.746;2023-08-24T02:46:08;16.10;78.69
69546;SHT31;56766;52.260;20.746;2023-08-24T02:48:36;16.15;78.36
69546;SHT31;56766;52.260;20.746;2023-08-24T02:51:04;16.18;78.20
69546;SHT31;56766;52.260;20.746;2023-08-24T02:53:32;16.18;78.20
69546;SHT31;56766;52.260;20.746;2023-08-24T02:55:59;16.17;78.17
69546;SHT31;56766;52.260;20.746;2023-08-24T02:58:25;16.14;78.28
69546;SHT31;56766;52.260;20.746;2023-08-24T03:00:54;16.14;78.24
69546;SHT31;56766;52.260;20.746;2023-08-24T03:03:20;16.13;78.20
69546;SHT31;56766;52.260;20.746;2023-08-24T03:05:58;16.10;78.30
69546;SHT31;56766;52.260;20.746;2023-08-24T03:08:27;16.09;78.29
69546;SHT31;56766;52.260;20.746;2023-08-24T03:10:55;16.07;78.24
69546;SHT31;56766;52.260;20.746;2023-08-24T03:13:22;16.08;78.07
69546;SHT31;56766;52.260;20.746;2023-08-24T03:15:48;16.06;78.18
69546;SHT31;56766;52.260;20.746;2023-08-24T03:18:16;16.05;78.29
69546;SHT31;56766;52.260;20.746;2023-08-24T03:20:45;16.01;78.40
69546;SHT31;56766;52.260;20.746;2023-08-24T03:23:13;16.03;78.52
69546;SHT31;56766;52.260;20.746;2023-08-24T03:25:41;16.02;78.64
69546;SHT31;56766;52.260;20.746;2023-08-24T03:28:09;15.97;78.70
69546;SHT31;56766;52.260;20.746;2023-08-24T03:30:39;15.95;78.64
69546;SHT31;56766;52.260;20.746;2023-08-24T03:33:11;15.93;78.79
69546;SHT31;56766;52.260;20.746;2023-08-24T03:35:39;15.90;78.91
69546;SHT31;56766;52.260;20.746;2023-08-24T03:38:07;15.87;78.91
69546;SHT31;56766;52.260;20.746;2023-08-24T03:40:34;15.85;78.95
69546;SHT31;56766;52.260;20.746;2023-08-24T03:43:03;15.82;78.91
69546;SHT31;56766;52.260;20.746;2023-08-24T03:45:31;15.79;79.01
69546;SHT31;56766;52.260;20.746;2023-08-24T03:47:58;15.79;78.91
69546;SHT31;56766;52.260;20.746;2023-08-24T03:50:24;15.78;78.97
69546;SHT31;56766;52.260;20.746;2023-08-24T03:52:54;15.81;79.07
69546;SHT31;56766;52.260;20.746;2023-08-24T03:55:22;15.85;79.04
69546;SHT31;56766;52.260;20.746;2023-08-24T03:57:49;15.88;78.97
69546;SHT31;56766;52.260;20.746;2023-08-24T04:00:16;15.92;78.85
69546;SHT31;56766;52.260;20.746;2023-08-24T04:02:43;15.95;78.79
69546;SHT31;56766;52.260;20.746;2023-08-24T04:05:11;15.97;78.68
69546;SHT31;56766;52.260;20.746;2023-08-24T04:07:38;16.00;78.45
69546;SHT31;56766;52.260;20.746;2023-08-24T04:10:07;16.03;78.29
69546;SHT31;56766;52.260;20.746;2023-08-24T04:12:35;16.06;78.21
69546;SHT31;56766;52.260;20.746;2023-08-24T04:15:01;16.10;78.19
69546;SHT31;56766;52.260;20.746;2023-08-24T04:17:29;16.11;78.23
69546;SHT31;56766;52.260;20.746;2023-08-24T04:19:55;16.13;78.39
69546;SHT31;56766;52.260;20.746;2023-08-24T04:22:22;16.13;78.49
69546;SHT31;56766;52.260;20.746;2023-08-24T04:24:49;16.16;78.49
69546;SHT31;56766;52.260;20.746;2023-08-24T04:27:15;16.20;78.47
69546;SHT31;56766;52.260;20.746;2023-08-24T04:29:42;16.23;78.47
69546;SHT31;56766;52.260;20.746;2023-08-24T04:32:09;16.27;78.47
69546;SHT31;56766;52.260;20.746;2023-08-24T04:34:35;16.34;78.42
69546;SHT31;56766;52.260;20.746;2023-08-24T04:37:02;16.39;78.40
69546;SHT31;56766;52.260;20.746;2023-08-24T04:39:29;16.45;78.40
69546;SHT31;56766;52.260;20.746;2023-08-24T04:41:56;16.52;78.36
69546;SHT31;56766;52.260;20.746;2023-08-24T04:44:24;16.58;78.39
69546;SHT31;56766;52.260;20.746;2023-08-24T04:46:53;16.67;78.43
69546;SHT31;56766;52.260;20.746;2023-08-24T04:49:20;16.81;78.63
69546;SHT31;56766;52.260;20.746;2023-08-24T04:51:46;17.05;78.96
69546;SHT31;56766;52.260;20.746;2023-08-24T04:54:13;17.33;79.04
69546;SHT31;56766;52.260;20.746;2023-08-24T04:56:40;17.57;78.78
69546;SHT31;56766;52.260;20.746;2023-08-24T04:59:06;17.81;78.67
69546;SHT31;56766;52.260;20.746;2023-08-24T05:01:34;18.10;78.36
69546;SHT31;56766;52.260;20.746;2023-08-24T05:04:01;18.41;78.17
69546;SHT31;56766;52.260;20.746;2023-08-24T05:06:28;18.72;77.59
69546;SHT31;56766;52.260;20.746;2023-08-24T05:08:55;19.04;77.19
69546;SHT31;56766;52.260;20.746;2023-08-24T05:11:23;19.33;76.58
69546;SHT31;56766;52.260;20.746;2023-08-24T05:13:57;19.60;76.10
69546;SHT31;56766;52.260;20.746;2023-08-24T05:16:24;19.84;75.54
69546;SHT31;56766;52.260;20.746;2023-08-24T05:18:50;20.06;74.88
69546;SHT31;56766;52.260;20.746;2023-08-24T05:21:17;20.24;74.52
69546;SHT31;56766;52.260;20.746;2023-08-24T05:23:44;20.39;73.88
69546;SHT31;56766;52.260;20.746;2023-08-24T05:26:10;20.53;73.52
69546;SHT31;56766;52.260;20.746;2023-08-24T05:28:37;20.69;73.19
69546;SHT31;56766;52.260;20.746;2023-08-24T05:31:04;20.82;72.48
69546;SHT31;56766;52.260;20.746;2023-08-24T05:33:30;20.91;71.93
69546;SHT31;56766;52.260;20.746;2023-08-24T05:35:59;20.99;71.82
69546;SHT31;56766;52.260;20.746;2023-08-24T05:38:26;21.07;71.30
69546;SHT31;56766;52.260;20.746;2023-08-24T05:40:53;21.08;70.47
69546;SHT31;56766;52.260;20.746;2023-08-24T05:43:19;21.09;69.77
69546;SHT31;56766;52.260;20.746;2023-08-24T05:45:46;21.11;69.70
69546;SHT31;56766;52.260;20.746;2023-08-24T05:48:14;21.17;69.71
69546;SHT31;56766;52.260;20.746;2023-08-24T05:50:46;21.26;69.38
69546;SHT31;56766;52.260;20.746;2023-08-24T05:53:14;21.30;68.96
69546;SHT31;56766;52.260;20.746;2023-08-24T05:55:40;21.34;69.13
69546;SHT31;56766;52.260;20.746;2023-08-24T05:58:08;21.36;68.82
69546;SHT31;56766;52.260;20.746;2023-08-24T06:00:35;21.42;68.71
69546;SHT31;56766;52.260;20.746;2023-08-24T06:03:02;21.48;68.83
69546;SHT31;56766;52.260;20.746;2023-08-24T06:05:30;21.55;68.53
69546;SHT31;56766;52.260;20.746;2023-08-24T06:07:57;21.58;68.51
69546;SHT31;56766;52.260;20.746;2023-08-24T06:10:25;21.61;68.50
69546;SHT31;56766;52.260;20.746;2023-08-24T06:12:53;21.65;68.50
69546;SHT31;56766;52.260;20.746;2023-08-24T06:15:19;21.66;68.13
69546;SHT31;56766;52.260;20.746;2023-08-24T06:17:50;21.67;67.85
69546;SHT31;56766;52.260;20.746;2023-08-24T06:20:17;21.69;67.08
69546;SHT31;56766;52.260;20.746;2023-08-24T06:22:44;21.69;66.89
69546;SHT31;56766;52.260;20.746;2023-08-24T06:25:11;21.71;66.78
69546;SHT31;56766;52.260;20.746;2023-08-24T06:27:38;21.74;66.74
69546;SHT31;56766;52.260;20.746;2023-08-24T06:30:05;21.79;66.93
69546;SHT31;56766;52.260;20.746;2023-08-24T06:32:32;21.85;67.12
69546;SHT31;56766;52.260;20.746;2023-08-24T06:34:59;21.87;67.31
69546;SHT31;56766;52.260;20.746;2023-08-24T06:37:26;21.89;66.94
69546;SHT31;56766;52.260;20.746;2023-08-24T06:39:53;21.94;66.29
69546;SHT31;56766;52.260;20.746;2023-08-24T06:42:19;22.00;66.63
69546;SHT31;56766;52.260;20.746;2023-08-24T06:44:47;22.07;66.31
69546;SHT31;56766;52.260;20.746;2023-08-24T06:47:17;22.16;66.25
69546;SHT31;56766;52.260;20.746;2023-08-24T06:49:44;22.25;66.53
69546;SHT31;56766;52.260;20.746;2023-08-24T06:52:10;22.34;66.20
69546;SHT31;56766;52.260;20.746;2023-08-24T06:54:37;22.44;66.08
69546;SHT31;56766;52.260;20.746;2023-08-24T06:57:04;22.54;66.02
69546;SHT31;56766;52.260;20.746;2023-08-24T06:59:31;22.65;65.40
69546;SHT31;56766;52.260;20.746;2023-08-24T07:01:57;22.73;64.90
69546;SHT31;56766;52.260;20.746;2023-08-24T07:04:27;22.83;64.19
69546;SHT31;56766;52.260;20.746;2023-08-24T07:06:54;22.98;64.26
69546;SHT31;56766;52.260;20.746;2023-08-24T07:09:21;23.20;64.40
69546;SHT31;56766;52.260;20.746;2023-08-24T07:11:48;23.39;63.48
69546;SHT31;56766;52.260;20.746;2023-08-24T07:14:15;23.59;62.45
69546;SHT31;56766;52.260;20.746;2023-08-24T07:16:42;23.83;61.37
69546;SHT31;56766;52.260;20.746;2023-08-24T07:19:09;24.12;61.28
69546;SHT31;56766;52.260;20.746;2023-08-24T07:21:36;24.40;62.23
69546;SHT31;56766;52.260;20.746;2023-08-24T07:24:03;24.66;62.23
69546;SHT31;56766;52.260;20.746;2023-08-24T07:26:30;24.91;61.73
69546;SHT31;56766;52.260;20.746;2023-08-24T07:28:58;25.19;61.44
69546;SHT31;56766;52.260;20.746;2023-08-24T07:31:25;25.46;61.07
69546;SHT31;56766;52.260;20.746;2023-08-24T07:33:51;25.71;59.86
69546;SHT31;56766;52.260;20.746;2023-08-24T07:36:18;25.85;59.17
69546;SHT31;56766;52.260;20.746;2023-08-24T07:38:45;25.97;57.70
69546;SHT31;56766;52.260;20.746;2023-08-24T07:41:15;25.92;57.26
69546;SHT31;56766;52.260;20.746;2023-08-24T07:43:44;25.91;57.72
69546;SHT31;56766;52.260;20.746;2023-08-24T07:46:11;25.93;57.90
69546;SHT31;56766;52.260;20.746;2023-08-24T07:48:38;26.00;56.98
69546;SHT31;56766;52.260;20.746;2023-08-24T07:51:05;26.07;56.69
69546;SHT31;56766;52.260;20.746;2023-08-24T07:53:31;26.18;56.83
69546;SHT31;56766;52.260;20.746;2023-08-24T07:56:00;26.34;57.08
69546;SHT31;56766;52.260;20.746;2023-08-24T07:58:28;26.49;56.53
69546;SHT31;56766;52.260;20.746;2023-08-24T08:00:55;26.60;54.92
69546;SHT31;56766;52.260;20.746;2023-08-24T08:03:21;26.66;55.21
69546;SHT31;56766;52.260;20.746;2023-08-24T08:05:48;26.79;55.92
69546;SHT31;56766;52.260;20.746;2023-08-24T08:08:18;26.90;55.41
69546;SHT31;56766;52.260;20.746;2023-08-24T08:10:45;26.92;54.55
69546;SHT31;56766;52.260;20.746;2023-08-24T08:13:12;26.84;53.21
69546;SHT31;56766;52.260;20.746;2023-08-24T08:15:38;26.64;53.68
69546;SHT31;56766;52.260;20.746;2023-08-24T08:18:05;26.57;53.31
69546;SHT31;56766;52.260;20.746;2023-08-24T08:20:32;26.54;53.44
69546;SHT31;56766;52.260;20.746;2023-08-24T08:22:59;26.49;53.32
69546;SHT31;56766;52.260;20.746;2023-08-24T08:25:26;26.51;53.43
69546;SHT31;56766;52.260;20.746;2023-08-24T08:27:52;26.58;53.07
69546;SHT31;56766;52.260;20.746;2023-08-24T08:30:19;26.65;53.04
69546;SHT31;56766;52.260;20.746;2023-08-24T08:32:46;26.73;54.33
69546;SHT31;56766;52.260;20.746;2023-08-24T08:35:13;26.89;53.77
69546;SHT31;56766;52.260;20.746;2023-08-24T08:37:40;27.06;53.58
69546;SHT31;56766;52.260;20.746;2023-08-24T08:40:09;27.24;52.52
69546;SHT31;56766;52.260;20.746;2023-08-24T08:42:37;27.37;53.33
69546;SHT31;56766;52.260;20.746;2023-08-24T08:45:08;27.56;53.37
69546;SHT31;56766;52.260;20.746;2023-08-24T08:47:37;27.74;53.44
69546;SHT31;56766;52.260;20.746;2023-08-24T08:50:05;27.94;52.90
69546;SHT31;56766;52.260;20.746;2023-08-24T08:52:32;28.18;53.10
69546;SHT31;56766;52.260;20.746;2023-08-24T08:55:00;28.40;52.07
69546;SHT31;56766;52.260;20.746;2023-08-24T08:57:27;28.44;50.94
69546;SHT31;56766;52.260;20.746;2023-08-24T08:59:55;28.34;49.54
69546;SHT31;56766;52.260;20.746;2023-08-24T09:02:23;28.28;49.98
69546;SHT31;56766;52.260;20.746;2023-08-24T09:04:51;28.28;50.90
69546;SHT31;56766;52.260;20.746;2023-08-24T09:07:18;28.32;50.55
69546;SHT31;56766;52.260;20.746;2023-08-24T09:09:45;28.44;50.56
69546;SHT31;56766;52.260;20.746;2023-08-24T09:12:11;28.67;51.11
69546;SHT31;56766;52.260;20.746;2023-08-24T09:14:38;28.90;51.03
69546;SHT31;56766;52.260;20.746;2023-08-24T09:17:06;29.08;50.40
69546;SHT31;56766;52.260;20.746;2023-08-24T09:19:33;29.22;48.19
69546;SHT31;56766;52.260;20.746;2023-08-24T09:22:05;29.25;48.56
69546;SHT31;56766;52.260;20.746;2023-08-24T09:24:35;29.38;48.32
69546;SHT31;56766;52.260;20.746;2023-08-24T09:27:15;29.39;47.89
69546;SHT31;56766;52.260;20.746;2023-08-24T09:29:52;29.32;45.60
69546;SHT31;56766;52.260;20.746;2023-08-24T09:32:29;29.16;45.90
69546;SHT31;56766;52.260;20.746;2023-08-24T09:35:08;29.25;47.13
69546;SHT31;56766;52.260;20.746;2023-08-24T09:37:37;29.47;47.73
69546;SHT31;56766;52.260;20.746;2023-08-24T09:40:06;29.67;46.63
69546;SHT31;56766;52.260;20.746;2023-08-24T09:42:39;29.76;46.11
69546;SHT31;56766;52.260;20.746;2023-08-24T09:45:16;29.86;45.48
69546;SHT31;56766;52.260;20.746;2023-08-24T09:47:49;30.04;46.50
69546;SHT31;56766;52.260;20.746;2023-08-24T09:50:18;30.24;45.91
69546;SHT31;56766;52.260;20.746;2023-08-24T09:52:47;30.27;45.01
69546;SHT31;56766;52.260;20.746;2023-08-24T09:55:19;30.09;43.66
69546;SHT31;56766;52.260;20.746;2023-08-24T09:57:53;29.86;44.19
69546;SHT31;56766;52.260;20.746;2023-08-24T10:00:22;29.85;44.94
69546;SHT31;56766;52.260;20.746;2023-08-24T10:02:53;29.85;44.17
69546;SHT31;56766;52.260;20.746;2023-08-24T10:05:22;29.71;44.50
69546;SHT31;56766;52.260;20.746;2023-08-24T10:07:52;29.82;44.83
69546;SHT31;56766;52.260;20.746;2023-08-24T10:10:25;30.00;45.10
69546;SHT31;56766;52.260;20.746;2023-08-24T10:13:00;30.13;44.58
69546;SHT31;56766;52.260;20.746;2023-08-24T10:15:37;30.32;45.17
69546;SHT31;56766;52.260;20.746;2023-08-24T10:18:18;30.55;45.37
69546;SHT31;56766;52.260;20.746;2023-08-24T10:20:47;30.76;45.00
69546;SHT31;56766;52.260;20.746;2023-08-24T10:23:15;30.86;44.63
69546;SHT31;56766;52.260;20.746;2023-08-24T10:25:44;30.93;44.80
69546;SHT31;56766;52.260;20.746;2023-08-24T10:28:14;30.99;43.34
69546;SHT31;56766;52.260;20.746;2023-08-24T10:30:43;30.99;42.83
69546;SHT31;56766;52.260;20.746;2023-08-24T10:33:13;30.95;42.86
69546;SHT31;56766;52.260;20.746;2023-08-24T10:35:42;30.91;43.03
69546;SHT31;56766;52.260;20.746;2023-08-24T10:38:28;30.90;43.09
69546;SHT31;56766;52.260;20.746;2023-08-24T10:41:03;30.91;42.78
69546;SHT31;56766;52.260;20.746;2023-08-24T10:43:40;31.03;43.22
69546;SHT31;56766;52.260;20.746;2023-08-24T10:46:15;31.32;43.53
69546;SHT31;56766;52.260;20.746;2023-08-24T10:53:55;31.79;42.70
69546;SHT31;56766;52.260;20.746;2023-08-24T10:56:52;31.83;42.36
69546;SHT31;56766;52.260;20.746;2023-08-24T10:59:25;31.88;41.51
69546;SHT31;56766;52.260;20.746;2023-08-24T11:04:18;31.64;42.00
69546;SHT31;56766;52.260;20.746;2023-08-24T11:06:54;31.83;42.01
69546;SHT31;56766;52.260;20.746;2023-08-24T11:09:23;32.12;42.13
69546;SHT31;56766;52.260;20.746;2023-08-24T11:12:01;32.24;40.98
69546;SHT31;56766;52.260;20.746;2023-08-24T11:14:30;32.22;41.01
69546;SHT31;56766;52.260;20.746;2023-08-24T11:17:00;32.40;41.52
69546;SHT31;56766;52.260;20.746;2023-08-24T11:19:29;32.48;40.54
69546;SHT31;56766;52.260;20.746;2023-08-24T11:21:57;32.30;41.12
69546;SHT31;56766;52.260;20.746;2023-08-24T11:24:25;32.22;42.16
69546;SHT31;56766;52.260;20.746;2023-08-24T11:26:52;32.42;41.73
69546;SHT31;56766;52.260;20.746;2023-08-24T11:29:19;32.58;41.67
69546;SHT31;56766;52.260;20.746;2023-08-24T11:31:47;32.49;41.32
69546;SHT31;56766;52.260;20.746;2023-08-24T11:34:17;32.39;41.77
69546;SHT31;56766;52.260;20.746;2023-08-24T11:36:46;32.24;42.30
69546;SHT31;56766;52.260;20.746;2023-08-24T11:39:17;32.04;40.97
69546;SHT31;56766;52.260;20.746;2023-08-24T11:42:00;31.78;40.90
69546;SHT31;56766;52.260;20.746;2023-08-24T11:44:48;31.57;41.87
69546;SHT31;56766;52.260;20.746;2023-08-24T11:47:19;31.46;42.21
69546;SHT31;56766;52.260;20.746;2023-08-24T11:49:46;31.63;42.94
69546;SHT31;56766;52.260;20.746;2023-08-24T11:52:13;31.93;41.77
69546;SHT31;56766;52.260;20.746;2023-08-24T11:54:42;32.02;41.35
69546;SHT31;56766;52.260;20.746;2023-08-24T11:57:09;32.13;42.23
69546;SHT31;56766;52.260;20.746;2023-08-24T11:59:38;32.20;41.02
69546;SHT31;56766;52.260;20.746;2023-08-24T12:02:06;32.00;42.13
69546;SHT31;56766;52.260;20.746;2023-08-24T12:04:41;31.78;42.36
69546;SHT31;56766;52.260;20.746;2023-08-24T12:07:12;31.82;42.89
69546;SHT31;56766;52.260;20.746;2023-08-24T12:09:40;32.13;42.29
69546;SHT31;56766;52.260;20.746;2023-08-24T12:12:17;32.36;41.75
69546;SHT31;56766;52.260;20.746;2023-08-24T12:14:48;32.37;40.54
69546;SHT31;56766;52.260;20.746;2023-08-24T12:17:16;32.09;39.70
69546;SHT31;56766;52.260;20.746;2023-08-24T12:20:02;31.50;38.58
69546;SHT31;56766;52.260;20.746;2023-08-24T12:22:32;30.83;39.80
69546;SHT31;56766;52.260;20.746;2023-08-24T12:24:59;30.30;40.58
69546;SHT31;56766;52.260;20.746;2023-08-24T12:27:27;29.91;41.94
69546;SHT31;56766;52.260;20.746;2023-08-24T12:29:53;29.48;43.19
69546;SHT31;56766;52.260;20.746;2023-08-24T12:32:21;29.16;44.17
69546;SHT31;56766;52.260;20.746;2023-08-24T12:34:51;28.93;44.56
69546;SHT31;56766;52.260;20.746;2023-08-24T12:37:18;28.68;44.87
69546;SHT31;56766;52.260;20.746;2023-08-24T12:39:44;28.61;45.36
69546;SHT31;56766;52.260;20.746;2023-08-24T12:42:11;28.84;45.39
69546;SHT31;56766;52.260;20.746;2023-08-24T12:44:38;29.12;46.02
69546;SHT31;56766;52.260;20.746;2023-08-24T12:47:05;29.35;46.47
69546;SHT31;56766;52.260;20.746;2023-08-24T12:49:31;29.66;45.79
69546;SHT31;56766;52.260;20.746;2023-08-24T12:51:58;30.00;44.62
69546;SHT31;56766;52.260;20.746;2023-08-24T12:54:25;30.25;45.03
69546;SHT31;56766;52.260;20.746;2023-08-24T12:56:51;30.35;44.10
69546;SHT31;56766;52.260;20.746;2023-08-24T12:59:18;30.36;44.53
69546;SHT31;56766;52.260;20.746;2023-08-24T13:01:45;30.52;44.47
69546;SHT31;56766;52.260;20.746;2023-08-24T13:04:12;30.78;45.09
69546;SHT31;56766;52.260;20.746;2023-08-24T13:06:39;31.12;44.90
69546;SHT31;56766;52.260;20.746;2023-08-24T13:09:05;31.38;44.01
69546;SHT31;56766;52.260;20.746;2023-08-24T13:11:33;31.59;43.53
69546;SHT31;56766;52.260;20.746;2023-08-24T13:13:59;31.73;43.23
69546;SHT31;56766;52.260;20.746;2023-08-24T13:16:26;31.72;41.76
69546;SHT31;56766;52.260;20.746;2023-08-24T13:18:54;31.66;41.23
69546;SHT31;56766;52.260;20.746;2023-08-24T13:21:20;31.64;41.27
69546;SHT31;56766;52.260;20.746;2023-08-24T13:23:47;31.58;41.20
69546;SHT31;56766;52.260;20.746;2023-08-24T13:26:19;31.42;40.40
69546;SHT31;56766;52.260;20.746;2023-08-24T13:28:50;31.01;40.47
69546;SHT31;56766;52.260;20.746;2023-08-24T13:31:19;30.59;40.19
69546;SHT31;56766;52.260;20.746;2023-08-24T13:33:45;30.41;42.01
69546;SHT31;56766;52.260;20.746;2023-08-24T13:36:12;30.37;41.83
69546;SHT31;56766;52.260;20.746;2023-08-24T13:38:39;30.20;42.01
69546;SHT31;56766;52.260;20.746;2023-08-24T13:41:05;29.92;41.82
69546;SHT31;56766;52.260;20.746;2023-08-24T13:43:32;29.78;42.98
69546;SHT31;56766;52.260;20.746;2023-08-24T13:45:59;29.77;42.98
69546;SHT31;56766;52.260;20.746;2023-08-24T13:48:25;29.67;43.35
69546;SHT31;56766;52.260;20.746;2023-08-24T13:50:53;29.43;43.49
69546;SHT31;56766;52.260;20.746;2023-08-24T13:53:19;29.12;44.17
69546;SHT31;56766;52.260;20.746;2023-08-24T13:55:46;28.91;43.95
69546;SHT31;56766;52.260;20.746;2023-08-24T13:58:13;28.71;43.94
69546;SHT31;56766;52.260;20.746;2023-08-24T14:00:40;28.48;43.92
69546;SHT31;56766;52.260;20.746;2023-08-24T14:03:07;28.21;44.36
69546;SHT31;56766;52.260;20.746;2023-08-24T14:05:38;28.10;45.06
69546;SHT31;56766;52.260;20.746;2023-08-24T14:08:06;28.13;45.84
69546;SHT31;56766;52.260;20.746;2023-08-24T14:10:34;28.17;45.28
69546;SHT31;56766;52.260;20.746;2023-08-24T14:13:01;28.13;45.08
69546;SHT31;56766;52.260;20.746;2023-08-24T14:15:27;28.08;44.11
69546;SHT31;56766;52.260;20.746;2023-08-24T14:17:54;28.04;43.89
69546;SHT31;56766;52.260;20.746;2023-08-24T14:20:21;28.02;44.43
69546;SHT31;56766;52.260;20.746;2023-08-24T14:22:47;27.98;45.17
69546;SHT31;56766;52.260;20.746;2023-08-24T14:25:15;27.98;45.60
69546;SHT31;56766;52.260;20.746;2023-08-24T14:27:42;27.96;45.83
69546;SHT31;56766;52.260;20.746;2023-08-24T14:30:09;27.92;45.32
69546;SHT31;56766;52.260;20.746;2023-08-24T14:32:36;27.82;45.35
69546;SHT31;56766;52.260;20.746;2023-08-24T14:35:03;27.70;45.95
69546;SHT31;56766;52.260;20.746;2023-08-24T14:37:30;27.62;46.26
69546;SHT31;56766;52.260;20.746;2023-08-24T14:39:59;27.53;46.47
69546;SHT31;56766;52.260;20.746;2023-08-24T14:42:26;27.47;46.48
69546;SHT31;56766;52.260;20.746;2023-08-24T14:44:53;27.53;46.53
69546;SHT31;56766;52.260;20.746;2023-08-24T14:47:19;27.59;46.44
69546;SHT31;56766;52.260;20.746;2023-08-24T14:49:46;27.67;46.00
69546;SHT31;56766;52.260;20.746;2023-08-24T14:52:13;27.74;45.79
69546;SHT31;56766;52.260;20.746;2023-08-24T14:54:40;27.74;44.54
69546;SHT31;56766;52.260;20.746;2023-08-24T14:57:07;27.72;44.69
69546;SHT31;56766;52.260;20.746;2023-08-24T14:59:35;27.74;45.19
69546;SHT31;56766;52.260;20.746;2023-08-24T15:02:02;27.74;44.93
69546;SHT31;56766;52.260;20.746;2023-08-24T15:04:29;27.74;45.72
69546;SHT31;56766;52.260;20.746;2023-08-24T15:06:55;27.73;44.74
69546;SHT31;56766;52.260;20.746;2023-08-24T15:09:22;27.66;44.43
69546;SHT31;56766;52.260;20.746;2023-08-24T15:11:49;27.61;44.61
69546;SHT31;56766;52.260;20.746;2023-08-24T15:14:16;27.56;44.61
69546;SHT31;56766;52.260;20.746;2023-08-24T15:16:42;27.48;44.11
69546;SHT31;56766;52.260;20.746;2023-08-24T15:19:09;27.38;44.22
69546;SHT31;56766;52.260;20.746;2023-08-24T15:21:35;27.26;44.01
69546;SHT31;56766;52.260;20.746;2023-08-24T15:24:02;27.17;44.09
69546;SHT31;56766;52.260;20.746;2023-08-24T15:26:29;27.11;44.85
69546;SHT31;56766;52.260;20.746;2023-08-24T15:29:11;27.08;45.02
69546;SHT31;56766;52.260;20.746;2023-08-24T15:31:44;27.02;45.18
69546;SHT31;56766;52.260;20.746;2023-08-24T15:34:11;26.97;45.43